Time;durP1;ratioP1;P1;durP2;ratioP2;P2;SDS_P1;SDS_P2;PMS_P1;PMS_P2;Temp;Humidity;BMP_temperature;BMP_pressure;BME280_temperature;BME280_humidity;BME280_pressure;Samples;Min_cycle;Max_cycle;Signal;HPM_P1;HPM_P2
2024/01/17 00:00:23;;;;;;;11.60;7.57;;;-3.10;99.90;;;;;;5041940;28;20428;-71
2024/01/17 00:02:49;;;;;;;9.33;6.60;;;-3.10;99.90;;;;;;5064980;28;20193;-71
2024/01/17 00:05:15;;;;;;;13.37;7.63;;;-3.10;99.90;;;;;;5080833;28;20479;-71
2024/01/17 00:07:41;;;;;;;15.93;7.67;;;-3.10;99.90;;;;;;5076548;28;20180;-71
2024/01/17 00:10:07;;;;;;;20.13;8.57;;;-3.20;99.90;;;;;;5077399;28;20193;-70
2024/01/17 00:12:33;;;;;;;14.60;7.93;;;-3.20;99.90;;;;;;5050235;28;20574;-70
2024/01/17 00:14:59;;;;;;;12.17;7.00;;;-3.20;99.90;;;;;;5074472;28;20723;-73
2024/01/17 00:17:24;;;;;;;16.03;8.27;;;-3.20;99.90;;;;;;5073738;28;20515;-69
2024/01/17 00:19:50;;;;;;;10.83;7.60;;;-3.20;99.90;;;;;;5072728;28;20273;-69
2024/01/17 00:22:16;;;;;;;9.97;6.90;;;-3.20;99.90;;;;;;5077330;28;20486;-72
2024/01/17 00:24:42;;;;;;;14.57;7.27;;;-3.20;99.90;;;;;;5078764;28;20225;-70
2024/01/17 00:27:08;;;;;;;11.40;6.37;;;-3.30;99.90;;;;;;5071803;28;20459;-71
2024/01/17 00:29:34;;;;;;;14.17;7.73;;;-3.30;99.90;;;;;;5076706;28;20399;-70
2024/01/17 00:32:01;;;;;;;10.10;6.87;;;-3.30;99.90;;;;;;5075528;28;20181;-70
2024/01/17 00:34:27;;;;;;;17.83;8.50;;;-3.20;99.90;;;;;;5068355;28;20705;-70
2024/01/17 00:36:52;;;;;;;11.30;7.13;;;-3.30;99.90;;;;;;5075070;28;20467;-70
2024/01/17 00:39:18;;;;;;;16.23;7.93;;;-3.30;99.90;;;;;;5079233;28;20263;-70
2024/01/17 00:41:45;;;;;;;14.63;8.10;;;-3.20;99.90;;;;;;5070932;28;20229;-69
2024/01/17 00:44:14;;;;;;;12.37;7.40;;;-3.20;99.90;;;;;;5076976;28;20465;-69
2024/01/17 00:46:40;;;;;;;11.60;7.60;;;-3.20;99.90;;;;;;5077600;28;20435;-72
2024/01/17 00:49:06;;;;;;;11.87;6.97;;;-3.10;99.90;;;;;;5068446;28;20859;-69
2024/01/17 00:51:32;;;;;;;11.73;7.70;;;-3.20;99.90;;;;;;5067950;28;20196;-71
2024/01/17 00:53:57;;;;;;;14.80;7.73;;;-3.20;99.90;;;;;;5064049;28;20213;-69
2024/01/17 00:56:23;;;;;;;14.93;7.33;;;-3.30;99.90;;;;;;5066088;28;20292;-69
2024/01/17 00:58:48;;;;;;;10.57;7.30;;;-3.30;99.90;;;;;;5071882;28;20216;-69
2024/01/17 01:01:14;;;;;;;14.37;7.50;;;-3.30;99.90;;;;;;5064873;28;20405;-69
2024/01/17 01:03:40;;;;;;;12.50;7.70;;;-3.30;99.90;;;;;;5063550;28;20193;-69
2024/01/17 01:06:05;;;;;;;14.93;8.10;;;-3.20;99.90;;;;;;5064390;28;20224;-69
2024/01/17 01:08:31;;;;;;;13.03;6.50;;;-3.30;99.90;;;;;;5055881;28;20229;-68
2024/01/17 01:10:56;;;;;;;9.23;7.47;;;-3.30;99.90;;;;;;5057036;28;20247;-69
2024/01/17 01:13:23;;;;;;;15.77;8.43;;;-3.30;99.90;;;;;;5068512;28;20225;-69
2024/01/17 01:15:49;;;;;;;9.77;6.47;;;-3.30;99.90;;;;;;5056872;28;20217;-70
2024/01/17 01:18:15;;;;;;;12.50;8.20;;;-3.40;99.90;;;;;;5072224;28;20423;-70
2024/01/17 01:20:41;;;;;;;16.83;7.73;;;-3.40;99.90;;;;;;5043606;28;20804;-69
2024/01/17 01:23:06;;;;;;;15.80;6.90;;;-3.40;99.90;;;;;;5058266;28;20276;-70
2024/01/17 01:25:32;;;;;;;10.27;7.33;;;-3.40;99.90;;;;;;5065540;28;20215;-69
2024/01/17 01:27:58;;;;;;;15.60;7.23;;;-3.40;99.90;;;;;;5070707;28;20185;-69
2024/01/17 01:30:23;;;;;;;17.10;8.87;;;-3.40;99.90;;;;;;5063069;28;20185;-70
2024/01/17 01:32:49;;;;;;;13.60;8.43;;;-3.30;99.90;;;;;;5065980;28;20539;-69
2024/01/17 01:35:14;;;;;;;14.67;7.90;;;-3.30;99.90;;;;;;5058877;28;20224;-70
2024/01/17 01:37:40;;;;;;;12.63;7.53;;;-3.30;99.90;;;;;;5074436;28;20187;-71
2024/01/17 01:40:09;;;;;;;15.20;8.60;;;-3.30;99.90;;;;;;5064478;28;20275;-68
2024/01/17 01:42:35;;;;;;;15.73;7.67;;;-3.30;99.90;;;;;;5038184;28;20213;-70
2024/01/17 01:45:01;;;;;;;12.03;7.33;;;-3.30;99.90;;;;;;5073684;28;20494;-68
2024/01/17 01:47:27;;;;;;;10.30;7.17;;;-3.20;99.90;;;;;;5068636;28;20188;-72
2024/01/17 01:49:54;;;;;;;13.73;7.77;;;-3.20;99.90;;;;;;5070891;28;20836;-71
2024/01/17 01:52:21;;;;;;;16.83;8.37;;;-3.20;99.90;;;;;;5066426;28;20803;-70
2024/01/17 01:54:47;;;;;;;18.83;8.00;;;-3.30;99.90;;;;;;5057652;28;20468;-70
2024/01/17 01:57:14;;;;;;;15.50;8.37;;;-3.30;99.90;;;;;;5071537;28;20454;-71
2024/01/17 01:59:40;;;;;;;13.03;7.83;;;-3.30;99.90;;;;;;5072514;28;20736;-71
2024/01/17 02:02:07;;;;;;;17.83;9.03;;;-3.30;99.90;;;;;;5074354;28;20423;-69
2024/01/17 02:04:36;;;;;;;22.00;8.80;;;-3.30;99.90;;;;;;5070881;28;20430;-71
2024/01/17 02:07:03;;;;;;;15.53;8.80;;;-3.30;99.90;;;;;;5071522;28;20447;-70
2024/01/17 02:09:30;;;;;;;13.50;8.17;;;-3.30;99.90;;;;;;5073815;28;20498;-70
2024/01/17 02:11:57;;;;;;;14.70;7.67;;;-3.40;99.90;;;;;;5074239;28;20422;-69
2024/01/17 02:14:24;;;;;;;23.63;9.77;;;-3.40;99.90;;;;;;5071131;28;20435;-69
2024/01/17 02:16:50;;;;;;;12.47;8.20;;;-3.50;99.90;;;;;;5069974;28;20451;-68
2024/01/17 02:19:17;;;;;;;12.53;7.90;;;-3.50;99.90;;;;;;5069355;28;20443;-70
2024/01/17 02:21:42;;;;;;;15.90;8.63;;;-3.50;99.90;;;;;;5069651;28;20185;-70
2024/01/17 02:24:22;;;;;;;12.97;7.50;;;-3.50;99.90;;;;;;5071334;28;20686;-71
2024/01/17 02:26:48;;;;;;;13.40;7.60;;;-3.50;99.90;;;;;;5068653;28;20288;-71
2024/01/17 02:29:13;;;;;;;12.47;8.03;;;-3.50;99.90;;;;;;5066065;28;20911;-69
2024/01/17 02:31:40;;;;;;;19.20;9.00;;;-3.50;99.90;;;;;;5070351;28;20184;-69
2024/01/17 02:34:05;;;;;;;19.00;9.20;;;-3.60;99.90;;;;;;5070842;28;20201;-72
2024/01/17 02:36:31;;;;;;;17.70;8.73;;;-3.60;99.90;;;;;;5072443;28;20459;-70
2024/01/17 02:38:57;;;;;;;14.73;7.90;;;-3.60;99.90;;;;;;5066805;28;20260;-69
2024/01/17 02:41:22;;;;;;;16.50;7.87;;;-3.60;99.90;;;;;;5064183;28;20185;-70
2024/01/17 02:43:48;;;;;;;11.97;8.00;;;-3.60;99.90;;;;;;5063271;28;20533;-69
2024/01/17 02:46:14;;;;;;;17.83;9.33;;;-3.60;99.90;;;;;;5063447;28;20664;-71
2024/01/17 02:48:39;;;;;;;13.43;8.73;;;-3.60;99.90;;;;;;5061819;28;20262;-71
2024/01/17 02:51:05;;;;;;;21.23;9.67;;;-3.60;99.90;;;;;;5062200;28;20478;-69
2024/01/17 02:53:30;;;;;;;18.07;9.13;;;-3.50;99.90;;;;;;5062206;28;20208;-70
2024/01/17 02:55:56;;;;;;;15.23;9.03;;;-3.50;99.90;;;;;;5064289;28;20384;-68
2024/01/17 02:58:22;;;;;;;13.67;8.73;;;-3.50;99.90;;;;;;5060460;28;20502;-70
2024/01/17 03:00:47;;;;;;;15.13;8.37;;;-3.50;99.90;;;;;;5061637;28;20209;-70
2024/01/17 03:03:13;;;;;;;15.73;9.60;;;-3.40;99.90;;;;;;5061513;28;20477;-68
2024/01/17 03:05:39;;;;;;;14.07;8.80;;;-3.40;99.90;;;;;;5073437;28;20985;-70
2024/01/17 03:08:05;;;;;;;13.47;6.80;;;-3.40;99.90;;;;;;5064950;28;20186;-70
2024/01/17 03:10:31;;;;;;;18.10;9.93;;;-3.50;99.90;;;;;;5062976;28;20594;-69
2024/01/17 03:12:57;;;;;;;13.70;8.70;;;-3.50;99.90;;;;;;5058790;28;20418;-70
2024/01/17 03:15:23;;;;;;;17.80;8.40;;;-3.50;99.90;;;;;;5066217;28;20462;-70
2024/01/17 03:17:49;;;;;;;15.37;8.50;;;-3.50;99.90;;;;;;5067781;28;20713;-70
2024/01/17 03:20:15;;;;;;;15.63;8.63;;;-3.50;99.90;;;;;;5060276;28;20518;-69
2024/01/17 03:22:41;;;;;;;15.57;8.20;;;-3.50;99.90;;;;;;5058742;28;20506;-68
2024/01/17 03:25:08;;;;;;;16.10;9.40;;;-3.50;99.90;;;;;;5073823;28;20501;-68
2024/01/17 03:27:35;;;;;;;14.50;8.20;;;-3.50;99.90;;;;;;5059660;28;20193;-69
2024/01/17 03:30:01;;;;;;;23.50;8.63;;;-3.60;99.90;;;;;;5065720;28;20489;-69
2024/01/17 03:32:27;;;;;;;18.30;9.00;;;-3.60;99.90;;;;;;5056966;28;20696;-69
2024/01/17 03:34:55;;;;;;;15.70;8.47;;;-3.60;99.90;;;;;;5067242;28;20412;-69
2024/01/17 03:37:22;;;;;;;14.53;8.83;;;-3.60;99.90;;;;;;5063973;28;20241;-69
2024/01/17 03:39:47;;;;;;;12.30;8.13;;;-3.60;99.90;;;;;;5056989;28;20602;-69
2024/01/17 03:42:15;;;;;;;20.67;9.30;;;-3.60;99.90;;;;;;5067323;28;20535;-70
2024/01/17 03:44:45;;;;;;;13.23;8.10;;;-3.60;99.90;;;;;;5057096;28;20182;-68
2024/01/17 03:47:11;;;;;;;12.37;8.30;;;-3.60;99.90;;;;;;5060610;28;20419;-69
2024/01/17 03:49:38;;;;;;;17.53;9.23;;;-3.60;99.90;;;;;;5064652;28;20444;-70
2024/01/17 03:52:05;;;;;;;19.60;9.60;;;-3.60;99.90;;;;;;5066826;28;20416;-69
2024/01/17 03:54:31;;;;;;;16.97;9.30;;;-3.50;99.90;;;;;;5066149;28;20514;-71
2024/01/17 03:56:56;;;;;;;12.70;8.70;;;-3.50;99.90;;;;;;5066204;28;20554;-68
2024/01/17 03:59:22;;;;;;;22.63;8.93;;;-3.40;99.90;;;;;;5056962;28;20185;-69
2024/01/17 04:01:48;;;;;;;16.63;8.50;;;-3.40;99.90;;;;;;5059540;28;20200;-68
2024/01/17 04:04:13;;;;;;;12.90;8.27;;;-3.40;99.90;;;;;;5057871;28;20249;-69
2024/01/17 04:06:40;;;;;;;16.80;9.50;;;-3.40;99.90;;;;;;5074100;28;20649;-70
2024/01/17 04:09:05;;;;;;;14.13;8.50;;;-3.40;99.90;;;;;;5057263;28;20169;-69
2024/01/17 04:11:31;;;;;;;18.80;9.50;;;-3.40;99.90;;;;;;5061394;28;20424;-70
2024/01/17 04:13:57;;;;;;;12.47;7.83;;;-3.30;99.90;;;;;;5067665;28;20422;-70
2024/01/17 04:16:22;;;;;;;27.00;9.03;;;-3.30;99.90;;;;;;5068576;28;20232;-69
2024/01/17 04:18:48;;;;;;;22.23;10.30;;;-3.30;99.90;;;;;;5062728;28;20190;-69
2024/01/17 04:21:18;;;;;;;13.87;8.83;;;-3.30;99.90;;;;;;5061921;28;20189;-68
2024/01/17 04:23:44;;;;;;;17.80;9.90;;;-3.20;99.90;;;;;;5058565;28;20225;-71
2024/01/17 04:26:23;;;;;;;19.07;8.50;;;-3.20;99.90;;;;;;5067377;28;20431;-70
2024/01/17 04:28:50;;;;;;;17.07;9.20;;;-3.20;99.90;;;;;;5064803;28;20670;-70
2024/01/17 04:31:43;;;;;;;13.27;8.57;;;-3.20;99.90;;;;;;5065509;28;20871;-70
2024/01/17 04:34:08;;;;;;;13.90;8.23;;;-3.20;99.90;;;;;;5054864;28;20450;-70
2024/01/17 04:36:34;;;;;;;17.53;9.70;;;-3.20;99.90;;;;;;5061229;28;20468;-70
2024/01/17 04:39:00;;;;;;;13.80;8.90;;;-3.20;99.90;;;;;;5064057;28;20519;-70
2024/01/17 04:41:26;;;;;;;21.40;9.70;;;-3.30;99.90;;;;;;5065630;28;20221;-70
2024/01/17 04:43:51;;;;;;;13.30;8.20;;;-3.30;99.90;;;;;;5070392;28;20209;-68
2024/01/17 04:46:17;;;;;;;19.03;9.60;;;-3.40;99.90;;;;;;5063113;28;20210;-70
2024/01/17 04:48:45;;;;;;;14.47;8.90;;;-3.40;99.90;;;;;;5074101;28;20209;-69
2024/01/17 04:51:11;;;;;;;13.50;8.57;;;-3.40;99.90;;;;;;5071367;28;20819;-71
2024/01/17 04:53:37;;;;;;;17.80;9.07;;;-3.40;99.90;;;;;;5062115;28;20412;-68
2024/01/17 04:56:05;;;;;;;28.73;8.97;;;-3.40;99.90;;;;;;5062289;28;20464;-69
2024/01/17 04:58:32;;;;;;;18.00;9.37;;;-3.40;99.90;;;;;;5066567;28;20477;-69
2024/01/17 05:00:57;;;;;;;17.23;9.23;;;-3.30;99.90;;;;;;5073227;28;20511;-70
2024/01/17 05:03:23;;;;;;;14.87;9.40;;;-3.30;99.90;;;;;;5063921;28;20511;-72
2024/01/17 05:05:49;;;;;;;14.10;8.27;;;-3.30;99.90;;;;;;5069086;28;20271;-69
2024/01/17 05:08:15;;;;;;;16.17;9.53;;;-3.30;99.90;;;;;;5067639;28;20633;-70
2024/01/17 05:10:44;;;;;;;18.47;9.83;;;-3.30;99.90;;;;;;5075215;28;20265;-71
2024/01/17 05:13:13;;;;;;;13.10;8.93;;;-3.30;99.90;;;;;;5065180;28;20189;-71
2024/01/17 05:15:39;;;;;;;14.17;8.37;;;-3.30;99.90;;;;;;5069466;28;20706;-69
2024/01/17 05:18:06;;;;;;;18.80;10.53;;;-3.30;99.90;;;;;;5059082;28;20633;-70
2024/01/17 05:20:33;;;;;;;17.63;8.77;;;-3.30;99.90;;;;;;5064504;28;20420;-70
2024/01/17 05:22:59;;;;;;;12.10;7.80;;;-3.30;99.90;;;;;;5069812;28;20433;-70
2024/01/17 05:25:26;;;;;;;18.63;8.70;;;-3.30;99.90;;;;;;5068774;28;20491;-73
2024/01/17 05:27:52;;;;;;;16.10;9.53;;;-3.20;99.90;;;;;;5069582;28;20511;-69
2024/01/17 05:30:23;;;;;;;21.13;10.00;;;-3.30;99.90;;;;;;5077901;28;20509;-71
2024/01/17 05:32:49;;;;;;;14.03;8.83;;;-3.20;99.90;;;;;;5067548;28;20431;-70
2024/01/17 05:35:16;;;;;;;20.87;8.63;;;-3.20;99.90;;;;;;5074471;28;20453;-71
2024/01/17 05:37:42;;;;;;;14.33;8.80;;;-3.20;99.90;;;;;;5066709;28;20462;-69
2024/01/17 05:40:12;;;;;;;16.70;9.93;;;-3.10;99.90;;;;;;5067474;28;20855;-72
2024/01/17 05:42:39;;;;;;;14.20;8.43;;;-3.20;99.90;;;;;;5072185;28;20494;-69
2024/01/17 05:45:06;;;;;;;23.07;9.23;;;-3.10;99.90;;;;;;5062112;28;20698;-71
2024/01/17 05:47:32;;;;;;;15.00;8.73;;;-3.10;99.90;;;;;;5064561;28;20431;-72
2024/01/17 05:49:57;;;;;;;14.80;8.10;;;-3.10;99.90;;;;;;5064148;28;20853;-72
2024/01/17 05:52:26;;;;;;;12.30;7.73;;;-3.10;99.90;;;;;;5063262;28;20190;-71
2024/01/17 05:54:51;;;;;;;16.40;8.60;;;-3.10;99.90;;;;;;5072953;28;20195;-72
2024/01/17 05:57:17;;;;;;;16.70;8.93;;;-3.10;99.90;;;;;;5076262;28;20523;-70
2024/01/17 05:59:43;;;;;;;15.53;9.17;;;-3.10;99.90;;;;;;5060518;28;20494;-70
2024/01/17 06:02:08;;;;;;;19.90;8.67;;;-3.00;99.90;;;;;;5061795;28;20216;-72
2024/01/17 06:04:34;;;;;;;13.23;7.30;;;-3.00;99.90;;;;;;5061606;28;20246;-72
2024/01/17 06:07:00;;;;;;;11.80;8.17;;;-3.10;99.90;;;;;;5059534;28;20373;-73
2024/01/17 06:09:26;;;;;;;16.43;8.10;;;-3.00;99.90;;;;;;5060196;28;20192;-71
2024/01/17 06:11:52;;;;;;;10.73;7.60;;;-3.00;99.90;;;;;;5063644;28;20186;-70
2024/01/17 06:14:17;;;;;;;13.50;8.60;;;-3.00;99.90;;;;;;5059866;28;20709;-71
2024/01/17 06:16:44;;;;;;;15.87;7.57;;;-3.00;99.90;;;;;;5062883;28;20216;-70
2024/01/17 06:19:10;;;;;;;15.10;8.13;;;-2.90;99.90;;;;;;5064834;28;20205;-72
2024/01/17 06:21:37;;;;;;;17.20;8.30;;;-2.90;99.90;;;;;;5075978;28;20431;-71
2024/01/17 06:24:02;;;;;;;18.10;8.57;;;-2.80;99.90;;;;;;5078109;28;20220;-73
2024/01/17 06:26:28;;;;;;;15.80;8.27;;;-2.90;99.90;;;;;;5059719;28;20436;-70
2024/01/17 06:28:54;;;;;;;28.77;8.50;;;-2.80;99.90;;;;;;5035703;28;20185;-72
2024/01/17 06:31:25;;;;;;;11.97;8.03;;;-2.80;99.90;;;;;;5059342;28;20437;-71
2024/01/17 06:33:54;;;;;;;14.43;8.27;;;-2.70;99.90;;;;;;5059290;28;20189;-74
2024/01/17 06:36:20;;;;;;;14.23;7.50;;;-2.70;99.90;;;;;;5065097;28;20506;-75
2024/01/17 06:38:46;;;;;;;18.70;9.97;;;-2.70;99.90;;;;;;5069096;28;20457;-73
2024/01/17 06:41:12;;;;;;;13.03;8.17;;;-2.60;99.90;;;;;;5060471;28;20436;-73
2024/01/17 06:43:38;;;;;;;13.67;8.53;;;-2.60;99.90;;;;;;5074399;28;20535;-72
2024/01/17 06:46:04;;;;;;;15.83;8.77;;;-2.60;99.90;;;;;;5067144;28;20209;-76
2024/01/17 06:48:30;;;;;;;14.30;9.13;;;-2.50;99.90;;;;;;5058767;28;20189;-73
2024/01/17 06:50:56;;;;;;;15.77;8.70;;;-2.50;99.90;;;;;;5069981;28;20921;-73
2024/01/17 06:53:22;;;;;;;12.03;7.80;;;-2.50;99.90;;;;;;5053379;28;20427;-75
2024/01/17 06:55:48;;;;;;;12.57;8.17;;;-2.50;99.90;;;;;;5063626;28;20213;-72
2024/01/17 06:58:14;;;;;;;14.23;8.20;;;-2.50;99.90;;;;;;5059798;28;20741;-73
2024/01/17 07:00:41;;;;;;;16.67;9.47;;;-2.40;99.90;;;;;;5067401;28;20396;-75
2024/01/17 07:03:07;;;;;;;11.70;7.43;;;-2.40;99.90;;;;;;5067803;28;20634;-73
2024/01/17 07:05:33;;;;;;;20.73;9.73;;;-2.40;99.90;;;;;;5058736;28;20504;-73
2024/01/17 07:07:58;;;;;;;15.27;8.80;;;-2.40;99.90;;;;;;5059820;28;20236;-71
2024/01/17 07:10:24;;;;;;;16.00;8.30;;;-2.30;99.90;;;;;;5063591;28;20200;-72
2024/01/17 07:12:53;;;;;;;15.27;8.67;;;-2.30;99.90;;;;;;5061653;28;20216;-72
2024/01/17 07:15:19;;;;;;;18.50;8.97;;;-2.20;99.90;;;;;;5064384;28;20258;-71
2024/01/17 07:17:45;;;;;;;13.80;7.60;;;-2.20;99.90;;;;;;5061285;28;20504;-71
2024/01/17 07:20:12;;;;;;;12.43;8.43;;;-2.20;99.90;;;;;;5067028;28;20185;-72
2024/01/17 07:22:47;;;;;;;15.67;7.97;;;-2.20;99.90;;;;;;5059579;28;20462;-73
2024/01/17 07:25:13;;;;;;;15.30;7.47;;;-2.10;99.90;;;;;;5061110;28;20766;-74
2024/01/17 07:27:44;;;;;;;14.97;8.37;;;-2.10;99.90;;;;;;5063949;28;20423;-71
2024/01/17 07:30:11;;;;;;;16.10;8.57;;;-2.10;99.90;;;;;;5063597;28;20419;-73
2024/01/17 07:32:38;;;;;;;20.73;8.30;;;-2.10;99.90;;;;;;5066840;28;20423;-73
2024/01/17 07:35:04;;;;;;;16.47;7.67;;;-2.10;99.90;;;;;;5073293;28;20391;-71
2024/01/17 07:37:31;;;;;;;12.83;7.53;;;-2.10;99.90;;;;;;5057342;28;20455;-72
2024/01/17 07:39:57;;;;;;;13.60;7.57;;;-2.00;99.90;;;;;;5072768;28;20735;-72
2024/01/17 07:42:22;;;;;;;15.03;8.07;;;-2.00;99.90;;;;;;5050908;28;20448;-70
2024/01/17 07:44:48;;;;;;;19.30;9.10;;;-2.00;99.90;;;;;;5063353;28;20872;-72
2024/01/17 07:47:15;;;;;;;15.60;7.50;;;-1.90;99.90;;;;;;5052881;28;20217;-72
2024/01/17 07:49:41;;;;;;;13.40;6.93;;;-1.90;99.90;;;;;;5080283;28;20201;-72
2024/01/17 07:52:07;;;;;;;14.07;7.33;;;-1.90;99.90;;;;;;5079452;28;20408;-73
2024/01/17 07:54:33;;;;;;;14.53;8.20;;;-1.80;99.90;;;;;;5072154;28;20455;-73
2024/01/17 07:56:59;;;;;;;13.13;7.37;;;-1.80;99.90;;;;;;5052170;28;20238;-71
2024/01/17 07:59:27;;;;;;;13.47;8.30;;;-1.80;99.90;;;;;;5072507;28;20426;-72
2024/01/17 08:01:53;;;;;;;13.60;7.83;;;-1.70;99.90;;;;;;5064320;28;20202;-71
2024/01/17 08:04:19;;;;;;;16.83;9.07;;;-1.70;99.90;;;;;;5052403;28;20427;-71
2024/01/17 08:06:46;;;;;;;11.63;6.90;;;-1.70;99.90;;;;;;5062640;28;20444;-72
2024/01/17 08:09:20;;;;;;;12.60;7.73;;;-1.60;99.90;;;;;;5061940;28;20419;-73
2024/01/17 08:11:53;;;;;;;14.17;7.47;;;-1.60;99.90;;;;;;5068866;28;20717;-70
2024/01/17 08:14:19;;;;;;;14.07;7.83;;;-1.50;99.90;;;;;;5061508;28;20459;-69
2024/01/17 08:16:46;;;;;;;14.80;8.47;;;-1.50;99.90;;;;;;5076982;28;20704;-72
2024/01/17 08:19:13;;;;;;;14.60;8.53;;;-1.50;99.90;;;;;;5061063;28;20435;-69
2024/01/17 08:21:38;;;;;;;11.67;8.13;;;-1.40;99.90;;;;;;5064321;28;20511;-74
2024/01/17 08:24:05;;;;;;;15.90;8.30;;;-1.40;99.90;;;;;;5063088;28;20428;-70
2024/01/17 08:26:31;;;;;;;11.13;7.07;;;-1.40;99.90;;;;;;5047909;28;20260;-72
2024/01/17 08:28:58;;;;;;;15.00;7.53;;;-1.30;99.90;;;;;;5065858;28;20432;-72
2024/01/17 08:31:23;;;;;;;12.03;7.03;;;-1.20;99.90;;;;;;5076600;28;20420;-73
2024/01/17 08:33:50;;;;;;;14.33;7.37;;;-1.20;99.90;;;;;;5049748;28;20446;-72
2024/01/17 08:36:16;;;;;;;20.23;8.27;;;-1.20;99.90;;;;;;5079734;28;20251;-71
2024/01/17 08:38:42;;;;;;;15.43;9.07;;;-1.10;99.90;;;;;;5071232;28;20399;-74
2024/01/17 08:41:09;;;;;;;11.53;7.27;;;-1.10;99.90;;;;;;5065836;28;20427;-73
2024/01/17 08:43:35;;;;;;;8.93;6.27;;;-1.10;99.90;;;;;;5061285;28;20439;-73
2024/01/17 08:46:01;;;;;;;12.32;8.50;;;-1.10;99.90;;;;;;5078244;28;20487;-68
2024/01/17 08:48:28;;;;;;;17.88;10.20;;;-1.10;99.90;;;;;;5039613;28;20429;-71
2024/01/17 08:50:54;;;;;;;15.37;9.20;;;-1.00;99.90;;;;;;5069454;28;20575;-72
2024/01/17 08:53:19;;;;;;;14.80;7.80;;;-1.00;99.90;;;;;;5065213;28;20423;-72
2024/01/17 08:55:46;;;;;;;17.70;8.20;;;-1.00;99.90;;;;;;5062047;28;20219;-71
2024/01/17 08:58:12;;;;;;;15.43;8.23;;;-1.00;99.90;;;;;;5044465;28;20245;-71
2024/01/17 09:00:37;;;;;;;11.97;7.40;;;-1.00;99.90;;;;;;5056869;28;20424;-72
2024/01/17 09:03:04;;;;;;;18.13;8.50;;;-1.00;99.90;;;;;;5063558;28;20285;-72
2024/01/17 09:05:30;;;;;;;22.30;8.30;;;-1.10;99.90;;;;;;5044030;28;20236;-73
2024/01/17 09:07:56;;;;;;;14.80;8.27;;;-1.00;99.90;;;;;;5071242;28;20419;-70
2024/01/17 09:10:23;;;;;;;19.47;8.57;;;-1.00;99.90;;;;;;5062300;28;20424;-71
2024/01/17 09:12:50;;;;;;;10.37;7.40;;;-1.00;99.90;;;;;;5060944;28;20435;-73
2024/01/17 09:15:16;;;;;;;12.90;7.57;;;-0.90;99.90;;;;;;5052337;28;20447;-73
2024/01/17 09:17:43;;;;;;;15.33;8.37;;;-0.90;99.90;;;;;;5036139;28;20435;-72
2024/01/17 09:20:09;;;;;;;15.75;9.20;;;-0.90;99.90;;;;;;5063674;28;20431;-74
2024/01/17 09:22:35;;;;;;;20.30;10.10;;;-0.90;99.90;;;;;;5060652;28;20185;-71
2024/01/17 09:25:01;;;;;;;17.77;8.30;;;-0.90;99.90;;;;;;5076715;28;20469;-72
2024/01/17 09:27:29;;;;;;;15.47;8.23;;;-0.90;99.90;;;;;;5044080;28;20775;-73
2024/01/17 09:29:56;;;;;;;15.83;9.40;;;-0.90;99.90;;;;;;5068199;28;20192;-74
2024/01/17 09:32:22;;;;;;;13.37;8.00;;;-0.80;99.90;;;;;;5059806;28;20427;-71
2024/01/17 09:34:48;;;;;;;14.30;7.80;;;-0.80;99.90;;;;;;5046405;28;20408;-71
2024/01/17 09:37:17;;;;;;;11.73;8.60;;;-0.70;99.90;;;;;;5053927;28;20459;-74
2024/01/17 09:39:47;;;;;;;14.15;8.63;;;-0.70;99.90;;;;;;5060053;28;20431;-73
2024/01/17 09:42:16;;;;;;;14.10;9.13;;;-0.70;99.90;;;;;;5063363;28;20630;-72
2024/01/17 09:44:43;;;;;;;16.33;8.00;;;-0.70;99.90;;;;;;5078553;28;20403;-73
2024/01/17 09:47:15;;;;;;;13.60;7.50;;;-0.70;99.90;;;;;;5071833;28;20427;-75
2024/01/17 09:49:42;;;;;;;17.30;9.03;;;-0.60;99.90;;;;;;5070374;28;20425;-72
2024/01/17 09:52:10;;;;;;;11.63;8.07;;;-0.60;99.90;;;;;;5077421;28;20517;-70
2024/01/17 09:54:41;;;;;;;18.60;9.37;;;-0.50;99.70;;;;;;5061634;28;20435;-71
2024/01/17 09:57:10;;;;;;;15.95;10.23;;;-0.40;98.70;;;;;;5068552;28;20724;-70
2024/01/17 09:59:56;;;;;;;15.37;8.93;;;-0.30;99.10;;;;;;5058282;28;20196;-71
2024/01/17 10:02:22;;;;;;;14.73;8.73;;;-0.30;98.70;;;;;;5070235;28;20424;-72
2024/01/17 10:04:49;;;;;;;19.50;9.03;;;-0.40;98.90;;;;;;5080258;28;20431;-74
2024/01/17 10:07:17;;;;;;;14.53;8.90;;;-0.30;98.70;;;;;;5060482;28;20590;-72
2024/01/17 10:09:46;;;;;;;16.53;9.43;;;-0.40;98.70;;;;;;5069716;28;20421;-72
2024/01/17 10:12:13;;;;;;;21.13;9.50;;;-0.30;98.40;;;;;;5073091;28;20510;-72
2024/01/17 10:14:40;;;;;;;18.67;10.13;;;-0.30;98.30;;;;;;5048890;28;20426;-73
2024/01/17 10:17:06;;;;;;;16.00;9.53;;;-0.30;98.70;;;;;;5074896;28;20516;-73
2024/01/17 10:19:32;;;;;;;19.17;9.10;;;-0.20;98.50;;;;;;5062104;28;20486;-73
2024/01/17 10:22:02;;;;;;;16.48;11.27;;;-0.20;98.00;;;;;;5070781;28;20439;-71
2024/01/17 10:24:32;;;;;;;13.90;8.80;;;-0.10;98.10;;;;;;5061587;28;20200;-72
2024/01/17 10:26:57;;;;;;;17.30;10.03;;;0.00;97.90;;;;;;5079605;28;20909;-72
2024/01/17 10:29:23;;;;;;;15.33;8.40;;;0.00;97.70;;;;;;5063725;28;20482;-71
2024/01/17 10:31:48;;;;;;;21.90;9.70;;;0.00;97.10;;;;;;5060605;28;20190;-72
2024/01/17 10:34:14;;;;;;;19.10;11.17;;;0.00;97.00;;;;;;5054832;28;20197;-73
2024/01/17 10:36:44;;;;;;;19.50;9.60;;;0.00;97.30;;;;;;5070416;28;20213;-70
2024/01/17 10:39:11;;;;;;;16.43;9.60;;;0.00;96.80;;;;;;5063728;28;20189;-72
2024/01/17 10:41:51;;;;;;;18.10;9.07;;;0.00;96.90;;;;;;5069117;28;20466;-72
2024/01/17 10:44:18;;;;;;;15.10;9.40;;;0.00;96.70;;;;;;5067673;28;20920;-74
2024/01/17 10:46:48;;;;;;;13.60;8.60;;;0.10;96.40;;;;;;5043712;28;20451;-72
2024/01/17 10:49:14;;;;;;;16.60;9.40;;;0.00;96.30;;;;;;5056950;28;20503;-72
2024/01/17 10:51:49;;;;;;;15.30;9.10;;;0.00;96.60;;;;;;5072813;28;20450;-73
2024/01/17 10:54:20;;;;;;;16.63;10.27;;;0.10;96.50;;;;;;5069619;28;20423;-72
2024/01/17 10:56:52;;;;;;;17.37;9.30;;;0.10;96.60;;;;;;5063898;28;20478;-74
2024/01/17 10:59:20;;;;;;;14.67;10.07;;;0.10;96.90;;;;;;5079182;28;20871;-72
2024/01/17 11:01:50;;;;;;;18.13;9.30;;;0.10;96.90;;;;;;5056742;28;20459;-73
2024/01/17 11:04:37;;;;;;;15.53;9.80;;;0.10;97.10;;;;;;5041875;28;20411;-74
2024/01/17 11:07:03;;;;;;;15.25;10.32;;;0.20;97.50;;;;;;5055073;28;20511;-72
2024/01/17 11:09:29;;;;;;;12.80;8.73;;;0.20;98.10;;;;;;5077027;28;20235;-70
2024/01/17 11:11:59;;;;;;;14.67;9.23;;;0.30;98.30;;;;;;5084113;28;20709;-71
2024/01/17 11:14:30;;;;;;;15.02;9.95;;;0.30;98.10;;;;;;5079944;28;20443;-72
2024/01/17 11:16:57;;;;;;;17.15;11.27;;;0.30;98.70;;;;;;5052747;28;20435;-70
2024/01/17 11:19:24;;;;;;;16.80;9.87;;;0.40;99.30;;;;;;5069461;28;20265;-72
2024/01/17 11:21:50;;;;;;;14.83;9.90;;;0.40;99.10;;;;;;5081382;28;20410;-73
2024/01/17 11:24:47;;;;;;;12.40;8.53;;;0.30;99.70;;;;;;5054668;28;20478;-75
2024/01/17 11:27:37;;;;;;;13.77;9.03;;;0.30;99.90;;;;;;5076816;28;20444;-73
2024/01/17 11:30:32;;;;;;;16.50;9.60;;;0.20;99.90;;;;;;5054922;28;20432;-73
2024/01/17 11:33:08;;;;;;;13.30;9.00;;;0.10;99.90;;;;;;5034492;28;20521;-73
2024/01/17 11:35:43;;;;;;;15.97;9.83;;;0.10;99.90;;;;;;5058387;28;20947;-76
2024/01/17 11:38:13;;;;;;;15.88;10.48;;;0.00;99.90;;;;;;5067113;28;20482;-72
2024/01/17 11:40:40;;;;;;;17.53;10.27;;;0.00;99.90;;;;;;5068324;28;20222;-74
2024/01/17 11:43:09;;;;;;;19.60;12.37;;;0.00;99.90;;;;;;5080286;28;20538;-73
2024/01/17 11:45:36;;;;;;;14.80;10.33;;;0.00;99.90;;;;;;5077729;28;20428;-73
2024/01/17 11:48:33;;;;;;;17.90;10.83;;;0.00;99.90;;;;;;5073387;28;20700;-72
2024/01/17 11:51:14;;;;;;;17.43;13.10;;;-0.10;99.90;;;;;;5036993;28;20755;-72
2024/01/17 11:53:50;;;;;;;20.53;11.90;;;-0.10;99.90;;;;;;5049288;28;20425;-73
2024/01/17 11:56:20;;;;;;;20.30;12.80;;;-0.10;99.90;;;;;;5059894;28;20514;-72
2024/01/17 11:58:47;;;;;;;19.97;11.83;;;-0.10;99.90;;;;;;5072892;28;20447;-72
2024/01/17 12:01:22;;;;;;;21.13;11.83;;;-0.20;99.90;;;;;;5075992;28;20411;-73
2024/01/17 12:03:48;;;;;;;19.33;11.93;;;-0.30;99.90;;;;;;5062919;28;20425;-74
2024/01/17 12:06:15;;;;;;;26.77;12.50;;;-0.30;99.90;;;;;;5058808;28;20444;-73
2024/01/17 12:08:41;;;;;;;20.75;13.20;;;-0.30;99.90;;;;;;5057801;28;20515;-70
2024/01/17 12:11:08;;;;;;;20.20;13.17;;;-0.30;99.90;;;;;;5075661;28;20618;-72
2024/01/17 12:13:38;;;;;;;17.47;11.90;;;-0.30;99.90;;;;;;5053205;28;20418;-75
2024/01/17 12:16:05;;;;;;;19.07;12.10;;;-0.30;99.90;;;;;;5064865;28;20559;-73
2024/01/17 12:18:32;;;;;;;24.13;15.47;;;-0.30;99.90;;;;;;5065985;28;20420;-74
2024/01/17 12:21:04;;;;;;;21.23;13.93;;;-0.30;99.90;;;;;;5061826;28;20440;-73
2024/01/17 12:23:31;;;;;;;18.90;13.20;;;-0.30;99.90;;;;;;5070155;28;20165;-71
2024/01/17 12:25:59;;;;;;;20.97;14.47;;;-0.30;99.90;;;;;;5064098;28;20592;-75
2024/01/17 12:28:27;;;;;;;29.87;17.23;;;-0.30;99.90;;;;;;5049419;28;20462;-73
2024/01/17 12:31:01;;;;;;;19.63;11.80;;;-0.30;99.90;;;;;;5063345;28;20423;-72
2024/01/17 12:33:32;;;;;;;21.23;13.33;;;-0.30;99.90;;;;;;5074311;28;20443;-72
2024/01/17 12:36:02;;;;;;;18.97;13.43;;;-0.30;99.90;;;;;;5065159;28;20464;-75